sensor_id;sensor_type;location;lat;lon;timestamp;P1;durP1;ratioP1;P2;durP2;ratioP2
19846;SDS011;10084;50.518;8.588;2023-03-08T00:00:38;2.33;;;2.13;;
19846;SDS011;10084;50.518;8.588;2023-03-08T00:03:04;2.40;;;2.20;;
19846;SDS011;10084;50.518;8.588;2023-03-08T00:05:30;2.20;;;2.00;;
19846;SDS011;10084;50.518;8.588;2023-03-08T00:07:56;2.20;;;2.10;;
19846;SDS011;10084;50.518;8.588;2023-03-08T00:10:22;2.20;;;2.00;;
19846;SDS011;10084;50.518;8.588;2023-03-08T00:12:48;1.80;;;1.70;;
19846;SDS011;10084;50.518;8.588;2023-03-08T00:15:13;2.63;;;2.43;;
19846;SDS011;10084;50.518;8.588;2023-03-08T00:17:39;2.43;;;2.27;;
19846;SDS011;10084;50.518;8.588;2023-03-08T00:20:05;2.10;;;1.93;;
19846;SDS011;10084;50.518;8.588;2023-03-08T00:22:39;2.93;;;2.67;;
19846;SDS011;10084;50.518;8.588;2023-03-08T00:25:05;2.63;;;2.43;;
19846;SDS011;10084;50.518;8.588;2023-03-08T00:27:35;2.33;;;2.13;;
19846;SDS011;10084;50.518;8.588;2023-03-08T00:30:03;2.23;;;1.83;;
19846;SDS011;10084;50.518;8.588;2023-03-08T00:32:33;1.97;;;1.87;;
19846;SDS011;10084;50.518;8.588;2023-03-08T00:34:58;2.40;;;2.20;;
19846;SDS011;10084;50.518;8.588;2023-03-08T00:37:24;1.97;;;1.87;;
19846;SDS011;10084;50.518;8.588;2023-03-08T00:39:50;2.63;;;2.43;;
19846;SDS011;10084;50.518;8.588;2023-03-08T00:42:17;2.67;;;2.07;;
19846;SDS011;10084;50.518;8.588;2023-03-08T00:44:44;2.60;;;2.40;;
19846;SDS011;10084;50.518;8.588;2023-03-08T00:47:10;2.03;;;1.93;;
19846;SDS011;10084;50.518;8.588;2023-03-08T00:49:35;2.30;;;2.10;;
19846;SDS011;10084;50.518;8.588;2023-03-08T00:52:01;1.83;;;1.73;;
19846;SDS011;10084;50.518;8.588;2023-03-08T00:54:28;5.47;;;2.80;;
19846;SDS011;10084;50.518;8.588;2023-03-08T00:56:54;2.63;;;2.43;;
19846;SDS011;10084;50.518;8.588;2023-03-08T00:59:19;3.13;;;2.93;;
19846;SDS011;10084;50.518;8.588;2023-03-08T01:01:45;4.63;;;2.33;;
19846;SDS011;10084;50.518;8.588;2023-03-08T01:04:12;2.70;;;2.50;;
19846;SDS011;10084;50.518;8.588;2023-03-08T01:06:38;2.00;;;1.90;;
19846;SDS011;10084;50.518;8.588;2023-03-08T01:09:08;2.73;;;2.53;;
19846;SDS011;10084;50.518;8.588;2023-03-08T01:11:34;1.77;;;1.67;;
19846;SDS011;10084;50.518;8.588;2023-03-08T01:14:01;2.10;;;2.00;;
19846;SDS011;10084;50.518;8.588;2023-03-08T01:16:28;2.30;;;2.17;;
19846;SDS011;10084;50.518;8.588;2023-03-08T01:18:57;1.50;;;1.40;;
19846;SDS011;10084;50.518;8.588;2023-03-08T01:21:24;1.80;;;1.70;;
19846;SDS011;10084;50.518;8.588;2023-03-08T01:23:51;7.07;;;1.93;;
19846;SDS011;10084;50.518;8.588;2023-03-08T01:26:17;2.00;;;1.90;;
19846;SDS011;10084;50.518;8.588;2023-03-08T01:28:45;2.70;;;2.50;;
19846;SDS011;10084;50.518;8.588;2023-03-08T01:31:15;2.00;;;1.90;;
19846;SDS011;10084;50.518;8.588;2023-03-08T01:33:42;2.23;;;2.13;;
19846;SDS011;10084;50.518;8.588;2023-03-08T01:36:09;2.37;;;2.17;;
19846;SDS011;10084;50.518;8.588;2023-03-08T01:38:37;1.93;;;1.83;;
19846;SDS011;10084;50.518;8.588;2023-03-08T01:41:03;2.27;;;2.03;;
19846;SDS011;10084;50.518;8.588;2023-03-08T01:43:31;1.87;;;1.77;;
19846;SDS011;10084;50.518;8.588;2023-03-08T01:46:08;3.10;;;1.73;;
19846;SDS011;10084;50.518;8.588;2023-03-08T01:49:01;2.40;;;1.83;;
19846;SDS011;10084;50.518;8.588;2023-03-08T01:51:48;1.93;;;1.50;;
19846;SDS011;10084;50.518;8.588;2023-03-08T01:54:36;1.37;;;1.10;;
19846;SDS011;10084;50.518;8.588;2023-03-08T01:57:21;2.13;;;2.00;;
19846;SDS011;10084;50.518;8.588;2023-03-08T01:59:57;1.47;;;1.37;;
19846;SDS011;10084;50.518;8.588;2023-03-08T02:02:40;1.63;;;1.53;;
19846;SDS011;10084;50.518;8.588;2023-03-08T02:05:08;2.47;;;1.77;;
19846;SDS011;10084;50.518;8.588;2023-03-08T02:07:37;1.43;;;1.33;;
19846;SDS011;10084;50.518;8.588;2023-03-08T02:10:03;1.20;;;1.10;;
19846;SDS011;10084;50.518;8.588;2023-03-08T02:12:29;2.07;;;1.53;;
19846;SDS011;10084;50.518;8.588;2023-03-08T02:14:55;2.03;;;1.93;;
19846;SDS011;10084;50.518;8.588;2023-03-08T02:17:22;1.60;;;1.50;;
19846;SDS011;10084;50.518;8.588;2023-03-08T02:22:37;1.77;;;1.67;;
19846;SDS011;10084;50.518;8.588;2023-03-08T02:25:26;1.80;;;1.70;;
19846;SDS011;10084;50.518;8.588;2023-03-08T02:27:51;1.70;;;1.60;;
19846;SDS011;10084;50.518;8.588;2023-03-08T02:30:26;1.63;;;1.47;;
19846;SDS011;10084;50.518;8.588;2023-03-08T02:32:54;1.43;;;1.30;;
19846;SDS011;10084;50.518;8.588;2023-03-08T02:35:20;1.33;;;1.10;;
19846;SDS011;10084;50.518;8.588;2023-03-08T02:37:46;1.63;;;1.53;;
19846;SDS011;10084;50.518;8.588;2023-03-08T02:40:12;1.50;;;1.40;;
19846;SDS011;10084;50.518;8.588;2023-03-08T02:42:38;2.10;;;1.90;;
19846;SDS011;10084;50.518;8.588;2023-03-08T02:45:04;2.47;;;2.07;;
19846;SDS011;10084;50.518;8.588;2023-03-08T02:47:31;2.17;;;1.97;;
19846;SDS011;10084;50.518;8.588;2023-03-08T02:49:56;1.70;;;1.17;;
19846;SDS011;10084;50.518;8.588;2023-03-08T02:52:22;1.63;;;1.53;;
19846;SDS011;10084;50.518;8.588;2023-03-08T02:54:49;1.77;;;1.67;;
19846;SDS011;10084;50.518;8.588;2023-03-08T02:57:15;1.20;;;1.10;;
19846;SDS011;10084;50.518;8.588;2023-03-08T02:59:42;1.50;;;1.40;;
19846;SDS011;10084;50.518;8.588;2023-03-08T03:02:08;1.63;;;1.53;;
19846;SDS011;10084;50.518;8.588;2023-03-08T03:04:34;1.47;;;1.37;;
19846;SDS011;10084;50.518;8.588;2023-03-08T03:07:00;1.60;;;1.50;;
19846;SDS011;10084;50.518;8.588;2023-03-08T03:09:27;1.77;;;1.67;;
19846;SDS011;10084;50.518;8.588;2023-03-08T03:11:53;1.50;;;1.40;;
19846;SDS011;10084;50.518;8.588;2023-03-08T03:14:19;1.63;;;1.53;;
19846;SDS011;10084;50.518;8.588;2023-03-08T03:16:45;2.37;;;1.97;;
19846;SDS011;10084;50.518;8.588;2023-03-08T03:19:11;1.87;;;1.77;;
19846;SDS011;10084;50.518;8.588;2023-03-08T03:21:38;2.10;;;1.70;;
19846;SDS011;10084;50.518;8.588;2023-03-08T03:24:05;1.77;;;1.60;;
19846;SDS011;10084;50.518;8.588;2023-03-08T03:26:39;1.37;;;1.27;;
19846;SDS011;10084;50.518;8.588;2023-03-08T03:29:06;2.50;;;1.60;;
19846;SDS011;10084;50.518;8.588;2023-03-08T03:31:35;1.53;;;1.43;;
19846;SDS011;10084;50.518;8.588;2023-03-08T03:34:01;1.43;;;1.27;;
19846;SDS011;10084;50.518;8.588;2023-03-08T03:36:27;1.37;;;1.20;;
19846;SDS011;10084;50.518;8.588;2023-03-08T03:38:53;1.33;;;1.23;;
19846;SDS011;10084;50.518;8.588;2023-03-08T03:41:21;6.20;;;1.67;;
19846;SDS011;10084;50.518;8.588;2023-03-08T03:43:52;1.77;;;1.67;;
19846;SDS011;10084;50.518;8.588;2023-03-08T03:46:19;1.83;;;1.53;;
19846;SDS011;10084;50.518;8.588;2023-03-08T03:48:49;2.47;;;2.23;;
19846;SDS011;10084;50.518;8.588;2023-03-08T03:51:18;2.53;;;1.33;;
19846;SDS011;10084;50.518;8.588;2023-03-08T03:53:54;1.87;;;1.77;;
19846;SDS011;10084;50.518;8.588;2023-03-08T03:56:21;2.00;;;1.90;;
19846;SDS011;10084;50.518;8.588;2023-03-08T03:58:50;2.03;;;1.93;;
19846;SDS011;10084;50.518;8.588;2023-03-08T04:01:23;1.97;;;1.83;;
19846;SDS011;10084;50.518;8.588;2023-03-08T04:03:57;5.93;;;2.70;;
19846;SDS011;10084;50.518;8.588;2023-03-08T04:06:28;2.10;;;1.90;;
19846;SDS011;10084;50.518;8.588;2023-03-08T04:08:56;2.20;;;2.00;;
19846;SDS011;10084;50.518;8.588;2023-03-08T04:11:26;2.07;;;1.87;;
19846;SDS011;10084;50.518;8.588;2023-03-08T04:13:54;2.10;;;1.90;;
19846;SDS011;10084;50.518;8.588;2023-03-08T04:16:24;2.90;;;2.13;;
19846;SDS011;10084;50.518;8.588;2023-03-08T04:18:52;1.57;;;1.43;;
19846;SDS011;10084;50.518;8.588;2023-03-08T04:21:20;2.20;;;1.93;;
19846;SDS011;10084;50.518;8.588;2023-03-08T04:23:47;12.67;;;1.80;;
19846;SDS011;10084;50.518;8.588;2023-03-08T04:26:14;2.37;;;2.17;;
19846;SDS011;10084;50.518;8.588;2023-03-08T04:28:40;2.73;;;2.53;;
19846;SDS011;10084;50.518;8.588;2023-03-08T04:31:14;1.53;;;1.43;;
19846;SDS011;10084;50.518;8.588;2023-03-08T04:33:42;7.27;;;1.27;;
19846;SDS011;10084;50.518;8.588;2023-03-08T04:36:08;6.53;;;1.30;;
19846;SDS011;10084;50.518;8.588;2023-03-08T04:38:34;1.53;;;1.43;;
19846;SDS011;10084;50.518;8.588;2023-03-08T04:41:01;1.20;;;1.00;;
19846;SDS011;10084;50.518;8.588;2023-03-08T04:43:58;7.67;;;1.33;;
19846;SDS011;10084;50.518;8.588;2023-03-08T04:46:40;1.67;;;1.57;;
19846;SDS011;10084;50.518;8.588;2023-03-08T04:49:08;1.00;;;1.00;;
19846;SDS011;10084;50.518;8.588;2023-03-08T04:51:39;1.30;;;1.20;;
19846;SDS011;10084;50.518;8.588;2023-03-08T04:54:07;1.33;;;1.00;;
19846;SDS011;10084;50.518;8.588;2023-03-08T04:56:37;1.60;;;1.50;;
19846;SDS011;10084;50.518;8.588;2023-03-08T04:59:03;1.27;;;1.27;;
19846;SDS011;10084;50.518;8.588;2023-03-08T05:01:29;1.83;;;1.63;;
19846;SDS011;10084;50.518;8.588;2023-03-08T05:03:55;1.33;;;1.23;;
19846;SDS011;10084;50.518;8.588;2023-03-08T05:06:28;1.50;;;1.40;;
19846;SDS011;10084;50.518;8.588;2023-03-08T05:08:55;1.23;;;1.13;;
19846;SDS011;10084;50.518;8.588;2023-03-08T05:11:26;1.50;;;1.37;;
19846;SDS011;10084;50.518;8.588;2023-03-08T05:13:54;1.80;;;1.70;;
19846;SDS011;10084;50.518;8.588;2023-03-08T05:16:24;2.70;;;1.67;;
19846;SDS011;10084;50.518;8.588;2023-03-08T05:18:50;1.57;;;1.33;;
19846;SDS011;10084;50.518;8.588;2023-03-08T05:21:19;2.07;;;0.90;;
19846;SDS011;10084;50.518;8.588;2023-03-08T05:23:51;1.40;;;1.30;;
19846;SDS011;10084;50.518;8.588;2023-03-08T05:26:19;1.23;;;1.13;;
19846;SDS011;10084;50.518;8.588;2023-03-08T05:28:48;1.23;;;0.90;;
19846;SDS011;10084;50.518;8.588;2023-03-08T05:31:16;1.87;;;1.03;;
19846;SDS011;10084;50.518;8.588;2023-03-08T05:33:45;2.27;;;2.07;;
19846;SDS011;10084;50.518;8.588;2023-03-08T05:36:16;1.57;;;1.10;;
19846;SDS011;10084;50.518;8.588;2023-03-08T05:38:43;1.50;;;1.07;;
19846;SDS011;10084;50.518;8.588;2023-03-08T05:41:11;2.13;;;1.93;;
19846;SDS011;10084;50.518;8.588;2023-03-08T05:43:40;1.63;;;0.90;;
19846;SDS011;10084;50.518;8.588;2023-03-08T05:46:10;1.70;;;1.60;;
19846;SDS011;10084;50.518;8.588;2023-03-08T05:48:37;1.70;;;1.60;;
19846;SDS011;10084;50.518;8.588;2023-03-08T05:51:04;2.03;;;1.63;;
19846;SDS011;10084;50.518;8.588;2023-03-08T05:53:31;1.53;;;1.43;;
19846;SDS011;10084;50.518;8.588;2023-03-08T05:58:40;1.43;;;1.30;;
19846;SDS011;10084;50.518;8.588;2023-03-08T06:01:10;5.33;;;1.67;;
19846;SDS011;10084;50.518;8.588;2023-03-08T06:03:38;1.90;;;1.73;;
19846;SDS011;10084;50.518;8.588;2023-03-08T06:06:04;1.60;;;1.50;;
19846;SDS011;10084;50.518;8.588;2023-03-08T06:08:30;1.63;;;1.53;;
19846;SDS011;10084;50.518;8.588;2023-03-08T06:10:58;2.67;;;2.47;;
19846;SDS011;10084;50.518;8.588;2023-03-08T06:13:25;3.37;;;2.60;;
19846;SDS011;10084;50.518;8.588;2023-03-08T06:15:55;3.23;;;2.23;;
19846;SDS011;10084;50.518;8.588;2023-03-08T06:18:23;2.63;;;2.43;;
19846;SDS011;10084;50.518;8.588;2023-03-08T06:23:54;5.23;;;3.90;;
19846;SDS011;10084;50.518;8.588;2023-03-08T06:26:19;4.87;;;3.93;;
19846;SDS011;10084;50.518;8.588;2023-03-08T06:28:45;4.77;;;4.43;;
19846;SDS011;10084;50.518;8.588;2023-03-08T06:31:13;4.00;;;3.63;;
19846;SDS011;10084;50.518;8.588;2023-03-08T06:33:41;7.20;;;2.70;;
19846;SDS011;10084;50.518;8.588;2023-03-08T06:36:15;2.83;;;2.63;;
19846;SDS011;10084;50.518;8.588;2023-03-08T06:38:43;2.90;;;2.70;;
19846;SDS011;10084;50.518;8.588;2023-03-08T06:41:11;3.63;;;3.33;;
19846;SDS011;10084;50.518;8.588;2023-03-08T06:43:38;3.17;;;2.77;;
19846;SDS011;10084;50.518;8.588;2023-03-08T06:46:07;7.43;;;3.53;;
19846;SDS011;10084;50.518;8.588;2023-03-08T06:48:37;3.53;;;3.23;;
19846;SDS011;10084;50.518;8.588;2023-03-08T06:51:05;3.77;;;3.47;;
19846;SDS011;10084;50.518;8.588;2023-03-08T06:53:31;3.03;;;2.73;;
19846;SDS011;10084;50.518;8.588;2023-03-08T06:56:00;3.63;;;3.33;;
19846;SDS011;10084;50.518;8.588;2023-03-08T06:58:29;3.10;;;2.90;;
19846;SDS011;10084;50.518;8.588;2023-03-08T07:00:55;3.77;;;3.47;;
19846;SDS011;10084;50.518;8.588;2023-03-08T07:03:21;5.33;;;3.50;;
19846;SDS011;10084;50.518;8.588;2023-03-08T07:05:47;2.20;;;1.93;;
19846;SDS011;10084;50.518;8.588;2023-03-08T07:08:12;3.50;;;3.20;;
19846;SDS011;10084;50.518;8.588;2023-03-08T07:10:38;2.40;;;2.20;;
19846;SDS011;10084;50.518;8.588;2023-03-08T07:13:04;2.67;;;2.47;;
19846;SDS011;10084;50.518;8.588;2023-03-08T07:15:30;2.33;;;2.07;;
19846;SDS011;10084;50.518;8.588;2023-03-08T07:17:56;2.67;;;2.47;;
19846;SDS011;10084;50.518;8.588;2023-03-08T07:20:22;2.23;;;2.13;;
19846;SDS011;10084;50.518;8.588;2023-03-08T07:22:49;2.60;;;2.40;;
19846;SDS011;10084;50.518;8.588;2023-03-08T07:25:16;2.87;;;2.67;;
19846;SDS011;10084;50.518;8.588;2023-03-08T07:27:43;1.60;;;1.50;;
19846;SDS011;10084;50.518;8.588;2023-03-08T07:30:10;2.27;;;2.03;;
19846;SDS011;10084;50.518;8.588;2023-03-08T07:32:38;7.57;;;1.67;;
19846;SDS011;10084;50.518;8.588;2023-03-08T07:35:05;1.83;;;1.67;;
19846;SDS011;10084;50.518;8.588;2023-03-08T07:37:32;1.70;;;1.60;;
19846;SDS011;10084;50.518;8.588;2023-03-08T07:39:58;1.80;;;1.50;;
19846;SDS011;10084;50.518;8.588;2023-03-08T07:42:24;3.47;;;2.07;;
19846;SDS011;10084;50.518;8.588;2023-03-08T07:44:55;1.27;;;1.17;;
19846;SDS011;10084;50.518;8.588;2023-03-08T07:47:21;1.90;;;1.80;;
19846;SDS011;10084;50.518;8.588;2023-03-08T07:49:47;1.97;;;1.87;;
19846;SDS011;10084;50.518;8.588;2023-03-08T07:52:12;2.80;;;2.33;;
19846;SDS011;10084;50.518;8.588;2023-03-08T07:54:38;1.70;;;1.60;;
19846;SDS011;10084;50.518;8.588;2023-03-08T07:57:04;1.90;;;1.80;;
19846;SDS011;10084;50.518;8.588;2023-03-08T07:59:30;2.13;;;2.03;;
19846;SDS011;10084;50.518;8.588;2023-03-08T08:01:56;2.10;;;1.97;;
19846;SDS011;10084;50.518;8.588;2023-03-08T08:04:22;2.60;;;2.13;;
19846;SDS011;10084;50.518;8.588;2023-03-08T08:06:48;2.27;;;1.90;;
19846;SDS011;10084;50.518;8.588;2023-03-08T08:09:14;2.10;;;1.90;;
19846;SDS011;10084;50.518;8.588;2023-03-08T08:11:41;2.60;;;2.40;;
19846;SDS011;10084;50.518;8.588;2023-03-08T08:14:07;2.70;;;2.50;;
19846;SDS011;10084;50.518;8.588;2023-03-08T08:16:33;5.00;;;2.47;;
19846;SDS011;10084;50.518;8.588;2023-03-08T08:18:59;3.07;;;2.73;;
19846;SDS011;10084;50.518;8.588;2023-03-08T08:21:25;2.57;;;2.37;;
19846;SDS011;10084;50.518;8.588;2023-03-08T08:23:50;2.53;;;2.33;;
19846;SDS011;10084;50.518;8.588;2023-03-08T08:26:19;2.40;;;2.20;;
19846;SDS011;10084;50.518;8.588;2023-03-08T08:28:46;2.87;;;2.63;;
19846;SDS011;10084;50.518;8.588;2023-03-08T08:31:15;2.53;;;2.33;;
19846;SDS011;10084;50.518;8.588;2023-03-08T08:33:42;2.33;;;2.13;;
19846;SDS011;10084;50.518;8.588;2023-03-08T08:36:08;2.90;;;2.60;;
19846;SDS011;10084;50.518;8.588;2023-03-08T08:38:36;2.30;;;2.10;;
19846;SDS011;10084;50.518;8.588;2023-03-08T08:41:03;2.77;;;2.57;;
19846;SDS011;10084;50.518;8.588;2023-03-08T08:43:30;2.83;;;2.63;;
19846;SDS011;10084;50.518;8.588;2023-03-08T08:45:58;2.23;;;1.93;;
19846;SDS011;10084;50.518;8.588;2023-03-08T08:48:24;2.30;;;2.10;;
19846;SDS011;10084;50.518;8.588;2023-03-08T08:50:51;2.87;;;2.47;;
19846;SDS011;10084;50.518;8.588;2023-03-08T08:53:18;2.17;;;1.97;;
19846;SDS011;10084;50.518;8.588;2023-03-08T08:55:44;2.50;;;2.30;;
19846;SDS011;10084;50.518;8.588;2023-03-08T08:58:10;4.50;;;2.53;;
19846;SDS011;10084;50.518;8.588;2023-03-08T09:00:36;2.53;;;2.33;;
19846;SDS011;10084;50.518;8.588;2023-03-08T09:03:03;2.43;;;2.23;;
19846;SDS011;10084;50.518;8.588;2023-03-08T09:05:29;2.40;;;2.20;;
19846;SDS011;10084;50.518;8.588;2023-03-08T09:07:56;3.00;;;2.77;;
19846;SDS011;10084;50.518;8.588;2023-03-08T09:10:23;2.67;;;2.47;;
19846;SDS011;10084;50.518;8.588;2023-03-08T09:12:49;4.20;;;3.30;;
19846;SDS011;10084;50.518;8.588;2023-03-08T09:15:15;2.93;;;2.40;;
19846;SDS011;10084;50.518;8.588;2023-03-08T09:17:41;3.07;;;2.53;;
19846;SDS011;10084;50.518;8.588;2023-03-08T09:20:07;3.60;;;3.30;;
19846;SDS011;10084;50.518;8.588;2023-03-08T09:22:34;2.73;;;2.53;;
19846;SDS011;10084;50.518;8.588;2023-03-08T09:25:01;2.00;;;1.90;;
19846;SDS011;10084;50.518;8.588;2023-03-08T09:27:27;2.93;;;2.73;;
19846;SDS011;10084;50.518;8.588;2023-03-08T09:29:53;2.27;;;1.77;;
19846;SDS011;10084;50.518;8.588;2023-03-08T09:32:19;3.47;;;3.00;;
19846;SDS011;10084;50.518;8.588;2023-03-08T09:34:44;3.37;;;2.40;;
19846;SDS011;10084;50.518;8.588;2023-03-08T09:37:11;2.30;;;2.10;;
19846;SDS011;10084;50.518;8.588;2023-03-08T09:39:37;1.63;;;1.53;;
19846;SDS011;10084;50.518;8.588;2023-03-08T09:42:04;3.47;;;2.43;;
19846;SDS011;10084;50.518;8.588;2023-03-08T09:45:03;2.90;;;2.43;;
19846;SDS011;10084;50.518;8.588;2023-03-08T09:47:41;2.13;;;2.03;;
19846;SDS011;10084;50.518;8.588;2023-03-08T09:52:51;1.97;;;1.87;;
19846;SDS011;10084;50.518;8.588;2023-03-08T09:55:28;2.63;;;2.43;;
19846;SDS011;10084;50.518;8.588;2023-03-08T09:57:58;2.57;;;2.37;;
19846;SDS011;10084;50.518;8.588;2023-03-08T10:00:30;1.87;;;1.77;;
19846;SDS011;10084;50.518;8.588;2023-03-08T10:05:30;1.37;;;1.27;;
19846;SDS011;10084;50.518;8.588;2023-03-08T10:08:16;1.47;;;1.37;;
19846;SDS011;10084;50.518;8.588;2023-03-08T10:10:48;2.07;;;1.97;;
19846;SDS011;10084;50.518;8.588;2023-03-08T10:13:34;1.93;;;1.83;;
19846;SDS011;10084;50.518;8.588;2023-03-08T10:18:49;1.77;;;1.50;;
19846;SDS011;10084;50.518;8.588;2023-03-08T10:21:19;1.17;;;1.07;;
19846;SDS011;10084;50.518;8.588;2023-03-08T10:23:51;1.60;;;1.50;;
19846;SDS011;10084;50.518;8.588;2023-03-08T10:26:36;1.80;;;1.70;;
19846;SDS011;10084;50.518;8.588;2023-03-08T10:29:01;1.80;;;1.70;;
19846;SDS011;10084;50.518;8.588;2023-03-08T10:31:28;1.43;;;1.33;;
19846;SDS011;10084;50.518;8.588;2023-03-08T10:37:03;1.50;;;1.40;;
19846;SDS011;10084;50.518;8.588;2023-03-08T10:39:34;1.47;;;1.37;;
19846;SDS011;10084;50.518;8.588;2023-03-08T10:42:05;2.13;;;2.00;;
19846;SDS011;10084;50.518;8.588;2023-03-08T10:44:40;1.67;;;1.57;;
19846;SDS011;10084;50.518;8.588;2023-03-08T10:52:38;2.20;;;1.70;;
19846;SDS011;10084;50.518;8.588;2023-03-08T10:57:34;1.47;;;1.40;;
19846;SDS011;10084;50.518;8.588;2023-03-08T11:00:06;1.23;;;1.17;;
19846;SDS011;10084;50.518;8.588;2023-03-08T11:02:42;1.23;;;1.13;;
19846;SDS011;10084;50.518;8.588;2023-03-08T11:07:54;1.50;;;1.40;;
19846;SDS011;10084;50.518;8.588;2023-03-08T11:10:22;1.67;;;1.57;;
19846;SDS011;10084;50.518;8.588;2023-03-08T11:15:33;1.57;;;1.47;;
19846;SDS011;10084;50.518;8.588;2023-03-08T11:18:27;1.83;;;1.73;;
19846;SDS011;10084;50.518;8.588;2023-03-08T11:21:05;2.00;;;1.90;;
19846;SDS011;10084;50.518;8.588;2023-03-08T11:23:42;2.60;;;2.40;;
19846;SDS011;10084;50.518;8.588;2023-03-08T11:26:33;2.57;;;2.37;;
19846;SDS011;10084;50.518;8.588;2023-03-08T11:29:15;3.93;;;2.50;;
19846;SDS011;10084;50.518;8.588;2023-03-08T11:31:54;2.40;;;2.20;;
19846;SDS011;10084;50.518;8.588;2023-03-08T11:34:44;3.77;;;2.27;;
19846;SDS011;10084;50.518;8.588;2023-03-08T11:37:21;2.53;;;2.33;;
19846;SDS011;10084;50.518;8.588;2023-03-08T11:40:03;3.00;;;2.80;;
19846;SDS011;10084;50.518;8.588;2023-03-08T11:42:52;2.77;;;2.57;;
19846;SDS011;10084;50.518;8.588;2023-03-08T11:45:42;2.07;;;1.97;;
19846;SDS011;10084;50.518;8.588;2023-03-08T11:48:38;2.27;;;2.17;;
19846;SDS011;10084;50.518;8.588;2023-03-08T11:54:36;2.73;;;2.53;;
19846;SDS011;10084;50.518;8.588;2023-03-08T11:57:10;2.47;;;2.27;;
19846;SDS011;10084;50.518;8.588;2023-03-08T11:59:50;2.63;;;2.43;;
19846;SDS011;10084;50.518;8.588;2023-03-08T12:02:29;2.67;;;2.47;;
19846;SDS011;10084;50.518;8.588;2023-03-08T12:07:32;7.00;;;2.80;;
19846;SDS011;10084;50.518;8.588;2023-03-08T12:10:20;2.80;;;2.57;;
19846;SDS011;10084;50.518;8.588;2023-03-08T12:13:01;2.07;;;1.97;;
19846;SDS011;10084;50.518;8.588;2023-03-08T12:20:35;2.60;;;2.40;;
19846;SDS011;10084;50.518;8.588;2023-03-08T12:23:12;2.73;;;2.53;;
19846;SDS011;10084;50.518;8.588;2023-03-08T12:26:00;2.30;;;2.07;;
19846;SDS011;10084;50.518;8.588;2023-03-08T12:28:40;2.90;;;2.60;;
19846;SDS011;10084;50.518;8.588;2023-03-08T12:31:19;2.60;;;2.20;;
19846;SDS011;10084;50.518;8.588;2023-03-08T12:33:54;2.43;;;2.23;;
19846;SDS011;10084;50.518;8.588;2023-03-08T12:36:21;2.43;;;2.33;;
19846;SDS011;10084;50.518;8.588;2023-03-08T12:39:09;2.80;;;2.60;;
19846;SDS011;10084;50.518;8.588;2023-03-08T12:41:55;2.73;;;2.53;;
19846;SDS011;10084;50.518;8.588;2023-03-08T12:44:33;1.87;;;1.77;;
19846;SDS011;10084;50.518;8.588;2023-03-08T12:47:00;2.80;;;2.60;;
19846;SDS011;10084;50.518;8.588;2023-03-08T12:49:42;6.03;;;2.43;;
19846;SDS011;10084;50.518;8.588;2023-03-08T12:54:43;3.10;;;2.87;;
19846;SDS011;10084;50.518;8.588;2023-03-08T12:57:44;2.87;;;2.63;;
19846;SDS011;10084;50.518;8.588;2023-03-08T13:03:24;2.53;;;2.33;;
19846;SDS011;10084;50.518;8.588;2023-03-08T13:06:12;3.47;;;2.43;;
19846;SDS011;10084;50.518;8.588;2023-03-08T13:08:49;2.43;;;2.23;;
19846;SDS011;10084;50.518;8.588;2023-03-08T13:11:22;3.00;;;2.80;;
19846;SDS011;10084;50.518;8.588;2023-03-08T13:13:54;2.87;;;2.13;;
19846;SDS011;10084;50.518;8.588;2023-03-08T13:16:35;3.00;;;2.77;;
19846;SDS011;10084;50.518;8.588;2023-03-08T13:19:07;2.83;;;2.63;;
19846;SDS011;10084;50.518;8.588;2023-03-08T13:21:39;2.83;;;2.63;;
19846;SDS011;10084;50.518;8.588;2023-03-08T13:27:21;2.57;;;2.37;;
19846;SDS011;10084;50.518;8.588;2023-03-08T13:29:35;3.03;;;2.83;;
19846;SDS011;10084;50.518;8.588;2023-03-08T13:32:06;2.27;;;2.07;;
19846;SDS011;10084;50.518;8.588;2023-03-08T13:34:37;2.03;;;1.83;;
19846;SDS011;10084;50.518;8.588;2023-03-08T13:37:05;2.70;;;2.50;;
19846;SDS011;10084;50.518;8.588;2023-03-08T13:39:43;2.53;;;2.30;;
19846;SDS011;10084;50.518;8.588;2023-03-08T13:42:24;1.93;;;1.77;;
19846;SDS011;10084;50.518;8.588;2023-03-08T13:45:15;2.63;;;2.43;;
19846;SDS011;10084;50.518;8.588;2023-03-08T13:47:42;2.20;;;2.10;;
19846;SDS011;10084;50.518;8.588;2023-03-08T13:52:56;3.40;;;3.10;;
19846;SDS011;10084;50.518;8.588;2023-03-08T13:55:26;2.47;;;2.20;;
19846;SDS011;10084;50.518;8.588;2023-03-08T13:57:57;2.50;;;2.30;;
19846;SDS011;10084;50.518;8.588;2023-03-08T14:00:33;2.33;;;2.23;;
19846;SDS011;10084;50.518;8.588;2023-03-08T14:03:00;1.93;;;1.83;;
19846;SDS011;10084;50.518;8.588;2023-03-08T14:05:31;2.33;;;2.17;;
19846;SDS011;10084;50.518;8.588;2023-03-08T14:10:30;1.90;;;1.80;;
19846;SDS011;10084;50.518;8.588;2023-03-08T14:13:05;4.53;;;2.07;;
19846;SDS011;10084;50.518;8.588;2023-03-08T14:15:46;2.23;;;2.13;;
19846;SDS011;10084;50.518;8.588;2023-03-08T14:18:27;7.03;;;2.63;;
19846;SDS011;10084;50.518;8.588;2023-03-08T14:21:06;2.30;;;2.10;;
19846;SDS011;10084;50.518;8.588;2023-03-08T14:23:39;2.40;;;1.97;;
19846;SDS011;10084;50.518;8.588;2023-03-08T14:26:27;3.07;;;2.17;;
19846;SDS011;10084;50.518;8.588;2023-03-08T14:29:23;2.70;;;2.50;;
19846;SDS011;10084;50.518;8.588;2023-03-08T14:31:51;2.03;;;1.83;;
19846;SDS011;10084;50.518;8.588;2023-03-08T14:34:30;2.43;;;2.27;;
19846;SDS011;10084;50.518;8.588;2023-03-08T14:37:04;2.20;;;2.00;;
19846;SDS011;10084;50.518;8.588;2023-03-08T14:39:31;2.60;;;2.40;;
19846;SDS011;10084;50.518;8.588;2023-03-08T14:42:07;2.20;;;2.00;;
19846;SDS011;10084;50.518;8.588;2023-03-08T14:44:34;1.93;;;1.80;;
19846;SDS011;10084;50.518;8.588;2023-03-08T14:47:07;1.80;;;1.70;;
19846;SDS011;10084;50.518;8.588;2023-03-08T14:49:34;1.73;;;1.53;;
19846;SDS011;10084;50.518;8.588;2023-03-08T14:52:00;2.43;;;2.23;;
19846;SDS011;10084;50.518;8.588;2023-03-08T14:54:31;2.07;;;1.97;;
19846;SDS011;10084;50.518;8.588;2023-03-08T14:57:17;1.70;;;1.60;;
19846;SDS011;10084;50.518;8.588;2023-03-08T14:59:46;1.33;;;1.23;;
19846;SDS011;10084;50.518;8.588;2023-03-08T15:02:13;2.27;;;2.07;;
19846;SDS011;10084;50.518;8.588;2023-03-08T15:04:40;1.47;;;1.37;;
19846;SDS011;10084;50.518;8.588;2023-03-08T15:07:06;2.87;;;2.00;;
19846;SDS011;10084;50.518;8.588;2023-03-08T15:09:38;1.97;;;1.87;;
19846;SDS011;10084;50.518;8.588;2023-03-08T15:12:05;2.03;;;1.93;;
19846;SDS011;10084;50.518;8.588;2023-03-08T15:14:33;2.30;;;1.93;;
19846;SDS011;10084;50.518;8.588;2023-03-08T15:16:59;2.77;;;1.77;;
19846;SDS011;10084;50.518;8.588;2023-03-08T15:19:24;2.63;;;1.70;;
19846;SDS011;10084;50.518;8.588;2023-03-08T15:21:50;9.33;;;2.10;;
19846;SDS011;10084;50.518;8.588;2023-03-08T15:24:16;1.87;;;1.77;;
19846;SDS011;10084;50.518;8.588;2023-03-08T15:26:43;1.57;;;1.47;;
19846;SDS011;10084;50.518;8.588;2023-03-08T15:29:15;1.70;;;1.60;;
19846;SDS011;10084;50.518;8.588;2023-03-08T15:31:54;1.37;;;1.27;;
19846;SDS011;10084;50.518;8.588;2023-03-08T15:34:21;1.90;;;1.80;;
19846;SDS011;10084;50.518;8.588;2023-03-08T15:36:47;1.80;;;1.70;;
19846;SDS011;10084;50.518;8.588;2023-03-08T15:39:14;2.33;;;2.17;;
19846;SDS011;10084;50.518;8.588;2023-03-08T15:41:40;2.00;;;1.90;;
19846;SDS011;10084;50.518;8.588;2023-03-08T15:44:06;1.97;;;1.87;;
19846;SDS011;10084;50.518;8.588;2023-03-08T15:46:32;1.97;;;1.87;;
19846;SDS011;10084;50.518;8.588;2023-03-08T15:48:58;2.63;;;2.43;;
19846;SDS011;10084;50.518;8.588;2023-03-08T15:51:25;1.70;;;1.60;;
19846;SDS011;10084;50.518;8.588;2023-03-08T15:53:57;1.80;;;1.47;;
19846;SDS011;10084;50.518;8.588;2023-03-08T15:56:24;1.67;;;1.57;;
19846;SDS011;10084;50.518;8.588;2023-03-08T15:58:50;1.60;;;1.50;;
19846;SDS011;10084;50.518;8.588;2023-03-08T16:01:16;1.97;;;1.73;;
19846;SDS011;10084;50.518;8.588;2023-03-08T16:03:42;1.60;;;1.50;;